Time;durP1;ratioP1;P1;durP2;ratioP2;P2;SDS_P1;SDS_P2;PMS_P1;PMS_P2;Temp;Humidity;BMP_temperature;BMP_pressure;BME280_temperature;BME280_humidity;BME280_pressure;Samples;Min_cycle;Max_cycle;Signal;HPM_P1;HPM_P2
2021/12/15 00:00:15;;;;;;;15.67;14.03;;;17.10;99.90;;;;;;1032903;28;20006;-70
2021/12/15 00:00:46;;;;;;;14.43;12.93;;;17.00;99.90;;;;;;1034814;28;20103;-71
2021/12/15 00:01:17;;;;;;;13.63;12.23;;;17.10;99.90;;;;;;1033015;28;20017;-70
2021/12/15 00:01:49;;;;;;;14.00;12.60;;;17.00;99.90;;;;;;1035035;28;20445;-70
2021/12/15 00:02:23;;;;;;;18.27;15.80;;;17.10;99.90;;;;;;1033211;28;21872;-70
2021/12/15 00:02:54;;;;;;;14.85;13.35;;;17.10;99.90;;;;;;1034951;28;20010;-70
2021/12/15 00:03:25;;;;;;;13.07;11.87;;;17.10;99.90;;;;;;1034685;28;20162;-69
2021/12/15 00:03:55;;;;;;;13.95;12.50;;;17.10;99.90;;;;;;1035322;28;20029;-70
2021/12/15 00:04:26;;;;;;;15.63;13.67;;;17.10;99.90;;;;;;1034567;28;20032;-69
2021/12/15 00:04:57;;;;;;;14.70;13.30;;;17.10;99.90;;;;;;1034272;28;20106;-70
2021/12/15 00:05:29;;;;;;;15.00;13.50;;;17.10;99.90;;;;;;1034440;28;20030;-70
2021/12/15 00:06:00;;;;;;;15.98;14.40;;;17.10;99.90;;;;;;1032176;28;20375;-70
2021/12/15 00:06:31;;;;;;;16.83;15.18;;;17.10;99.90;;;;;;1034139;28;20041;-70
2021/12/15 00:07:02;;;;;;;14.77;13.37;;;17.10;99.90;;;;;;1034655;28;20026;-70
2021/12/15 00:07:33;;;;;;;19.67;17.33;;;17.10;99.90;;;;;;1035134;28;20014;-70
2021/12/15 00:08:11;;;;;;;15.90;14.30;;;17.10;99.90;;;;;;1034385;28;20075;-70
2021/12/15 00:08:44;;;;;;;13.65;12.25;;;17.10;99.90;;;;;;1034790;28;20080;-70
2021/12/15 00:09:15;;;;;;;14.93;13.25;;;17.10;99.90;;;;;;1033838;28;20101;-69
2021/12/15 00:09:46;;;;;;;13.80;12.50;;;17.10;99.90;;;;;;1032681;28;20117;-70
2021/12/15 00:10:18;;;;;;;14.10;12.65;;;17.10;99.90;;;;;;1033019;28;20018;-70
2021/12/15 00:10:49;;;;;;;16.20;13.68;;;17.10;99.90;;;;;;1034597;28;20153;-70
2021/12/15 00:11:21;;;;;;;17.38;15.52;;;17.10;99.90;;;;;;1030674;28;20046;-69
2021/12/15 00:11:52;;;;;;;15.00;13.52;;;17.10;99.90;;;;;;1030549;28;20525;-69
2021/12/15 00:12:24;;;;;;;18.40;16.47;;;17.10;99.90;;;;;;1030309;28;20397;-69
2021/12/15 00:12:55;;;;;;;19.55;17.55;;;17.10;99.90;;;;;;1030283;28;20469;-69
2021/12/15 00:13:26;;;;;;;15.98;14.48;;;17.10;99.90;;;;;;1033790;28;20033;-69
2021/12/15 00:13:57;;;;;;;12.07;10.93;;;17.10;99.90;;;;;;1031625;28;20051;-70
2021/12/15 00:14:31;;;;;;;13.43;12.13;;;17.10;99.90;;;;;;1029963;28;20084;-70
2021/12/15 00:15:03;;;;;;;12.73;11.43;;;17.10;99.90;;;;;;1028439;28;20018;-70
2021/12/15 00:15:34;;;;;;;13.93;12.50;;;17.10;99.90;;;;;;1027379;28;20795;-70
2021/12/15 00:16:07;;;;;;;13.87;11.50;;;17.10;99.90;;;;;;1032853;28;20811;-71
2021/12/15 00:16:39;;;;;;;16.58;14.70;;;17.10;99.90;;;;;;1034633;28;20041;-70
2021/12/15 00:17:10;;;;;;;14.35;12.75;;;17.10;99.90;;;;;;1034250;28;20580;-68
2021/12/15 00:17:41;;;;;;;13.55;12.15;;;17.10;99.90;;;;;;1032196;28;20014;-70
2021/12/15 00:18:13;;;;;;;16.83;15.03;;;17.10;99.90;;;;;;1033476;28;20092;-70
2021/12/15 00:18:44;;;;;;;17.70;15.90;;;17.10;99.90;;;;;;1034639;28;20174;-70
2021/12/15 00:19:15;;;;;;;13.10;11.82;;;17.10;99.90;;;;;;1034187;28;20010;-70
2021/12/15 00:19:45;;;;;;;15.43;13.93;;;17.10;99.90;;;;;;1034769;28;20014;-70
2021/12/15 00:20:18;;;;;;;13.40;12.20;;;17.10;99.90;;;;;;1034799;28;20017;-70
2021/12/15 00:20:49;;;;;;;15.38;13.77;;;17.10;99.90;;;;;;1033646;28;20030;-69
2021/12/15 00:21:20;;;;;;;15.02;13.55;;;17.10;99.90;;;;;;1034293;28;20022;-70
2021/12/15 00:21:51;;;;;;;14.07;12.15;;;17.10;99.90;;;;;;1034773;28;22142;-70
2021/12/15 00:22:22;;;;;;;16.23;14.67;;;17.10;99.90;;;;;;1033776;28;20468;-70
2021/12/15 00:22:52;;;;;;;13.13;11.07;;;17.10;99.90;;;;;;1034834;28;20138;-71
2021/12/15 00:23:23;;;;;;;12.60;11.30;;;17.10;99.90;;;;;;1034178;28;20385;-70
2021/12/15 00:23:54;;;;;;;11.77;10.57;;;17.10;99.90;;;;;;1034701;28;20471;-70
2021/12/15 00:24:25;;;;;;;13.75;12.25;;;17.10;99.90;;;;;;1034702;28;20077;-70
2021/12/15 00:24:56;;;;;;;13.17;11.80;;;17.10;99.90;;;;;;1034431;28;20029;-70
2021/12/15 00:25:29;;;;;;;14.13;12.70;;;17.10;99.90;;;;;;1026972;28;20772;-70
2021/12/15 00:26:00;;;;;;;16.40;14.82;;;17.10;99.90;;;;;;1026419;28;20549;-70
2021/12/15 00:26:31;;;;;;;18.43;16.53;;;17.10;99.90;;;;;;1026246;28;20577;-70
2021/12/15 00:27:03;;;;;;;14.98;13.38;;;17.10;99.90;;;;;;1026150;28;20019;-70
2021/12/15 00:27:33;;;;;;;13.82;12.52;;;17.10;99.90;;;;;;1026906;28;20069;-70
2021/12/15 00:28:04;;;;;;;12.70;11.40;;;17.10;99.90;;;;;;1031993;28;20113;-70
2021/12/15 00:28:35;;;;;;;12.68;11.48;;;17.10;99.90;;;;;;1034402;28;20018;-69
2021/12/15 00:29:07;;;;;;;12.20;11.00;;;17.10;99.90;;;;;;1031423;28;20164;-71
2021/12/15 00:29:38;;;;;;;12.88;11.43;;;17.10;99.90;;;;;;1034908;28;20773;-70
2021/12/15 00:30:10;;;;;;;12.63;11.40;;;17.10;99.90;;;;;;1034776;28;20010;-69
2021/12/15 00:30:40;;;;;;;14.13;12.75;;;17.10;99.90;;;;;;1033153;28;20428;-70
2021/12/15 00:31:11;;;;;;;14.37;12.93;;;17.10;99.90;;;;;;1030589;28;20420;-70
2021/12/15 00:31:45;;;;;;;13.53;12.10;;;17.10;99.90;;;;;;1030949;28;20650;-70
2021/12/15 00:32:16;;;;;;;11.00;10.00;;;17.10;99.90;;;;;;1034383;28;20269;-70
2021/12/15 00:32:49;;;;;;;12.75;10.38;;;17.10;99.90;;;;;;1033225;28;20122;-70
2021/12/15 00:33:19;;;;;;;12.25;11.15;;;17.20;99.90;;;;;;1033113;28;20052;-69
2021/12/15 00:33:50;;;;;;;12.30;11.17;;;17.20;99.90;;;;;;1033889;28;20018;-69
2021/12/15 00:34:21;;;;;;;12.90;11.60;;;17.20;99.90;;;;;;1030096;28;20026;-69
2021/12/15 00:34:52;;;;;;;13.02;11.77;;;17.20;99.90;;;;;;1030872;28;20241;-69
2021/12/15 00:35:23;;;;;;;12.97;11.63;;;17.20;99.90;;;;;;1030089;28;20813;-71
2021/12/15 00:35:55;;;;;;;11.98;10.77;;;17.20;99.90;;;;;;1030458;28;20022;-69
2021/12/15 00:36:26;;;;;;;15.50;13.02;;;17.20;99.90;;;;;;1030147;28;20031;-70
2021/12/15 00:36:57;;;;;;;14.87;13.30;;;17.20;99.90;;;;;;1028382;28;20086;-70
2021/12/15 00:37:27;;;;;;;14.20;12.77;;;17.20;99.90;;;;;;1033518;28;20032;-69
2021/12/15 00:37:58;;;;;;;13.50;12.20;;;17.20;99.90;;;;;;1034496;28;20385;-70
2021/12/15 00:38:29;;;;;;;13.23;11.93;;;17.20;99.90;;;;;;1030174;28;20022;-69
2021/12/15 00:39:00;;;;;;;13.80;12.60;;;17.20;99.90;;;;;;1030474;28;20022;-70
2021/12/15 00:39:30;;;;;;;13.55;12.10;;;17.20;99.90;;;;;;1030172;28;20019;-69
2021/12/15 00:40:07;;;;;;;13.10;11.80;;;17.20;99.90;;;;;;1029903;28;20113;-69
2021/12/15 00:40:38;;;;;;;16.50;13.68;;;17.20;99.90;;;;;;1032955;28;20018;-69
2021/12/15 00:41:09;;;;;;;12.10;10.97;;;17.20;99.90;;;;;;1033898;28;20021;-68
2021/12/15 00:41:40;;;;;;;12.95;11.57;;;17.20;99.90;;;;;;1034536;28;20073;-69
2021/12/15 00:42:11;;;;;;;13.00;11.70;;;17.20;99.90;;;;;;1034620;28;20069;-68
2021/12/15 00:42:42;;;;;;;12.10;10.80;;;17.20;99.90;;;;;;1034888;28;20590;-68
2021/12/15 00:43:12;;;;;;;16.00;14.40;;;17.20;99.90;;;;;;1034664;28;20037;-69
2021/12/15 00:43:43;;;;;;;15.97;14.00;;;17.20;99.90;;;;;;1034409;28;20109;-68
2021/12/15 00:44:14;;;;;;;14.87;13.40;;;17.20;99.90;;;;;;1034081;28;20026;-68
2021/12/15 00:44:45;;;;;;;12.95;11.75;;;17.20;99.90;;;;;;1031903;28;20132;-68
2021/12/15 00:45:16;;;;;;;13.23;11.83;;;17.20;99.90;;;;;;1034876;28;20033;-69
2021/12/15 00:45:47;;;;;;;12.38;10.95;;;17.20;99.90;;;;;;1035069;28;20067;-69
2021/12/15 00:46:19;;;;;;;14.90;13.50;;;17.20;99.90;;;;;;1034274;28;20038;-68
2021/12/15 00:46:52;;;;;;;16.02;14.52;;;17.20;99.90;;;;;;1035020;28;20362;-69
2021/12/15 00:47:22;;;;;;;13.30;12.02;;;17.20;99.90;;;;;;1034121;28;20188;-70
2021/12/15 00:47:54;;;;;;;13.37;11.97;;;17.20;99.90;;;;;;1033902;28;20017;-69
2021/12/15 00:48:25;;;;;;;12.57;11.45;;;17.20;99.90;;;;;;1032535;28;20029;-69
2021/12/15 00:48:57;;;;;;;11.02;10.02;;;17.20;99.90;;;;;;1032848;28;20053;-69
2021/12/15 00:49:28;;;;;;;11.98;10.88;;;17.20;99.90;;;;;;1033745;28;20022;-69
2021/12/15 00:49:58;;;;;;;13.53;12.17;;;17.20;99.90;;;;;;1038389;28;20145;-69
2021/12/15 00:50:32;;;;;;;11.80;10.60;;;17.20;99.90;;;;;;1034642;28;20051;-68
2021/12/15 00:51:03;;;;;;;13.77;12.18;;;17.20;99.90;;;;;;1034615;28;20156;-68
2021/12/15 00:51:36;;;;;;;12.57;11.43;;;17.20;99.90;;;;;;1034340;28;20377;-68
2021/12/15 00:52:07;;;;;;;14.30;12.93;;;17.20;99.90;;;;;;1034133;28;20617;-68
2021/12/15 00:52:40;;;;;;;11.40;10.02;;;17.20;99.90;;;;;;1032767;28;20020;-68
2021/12/15 00:53:11;;;;;;;12.05;10.90;;;17.20;99.90;;;;;;1035706;28;20049;-68
2021/12/15 00:53:42;;;;;;;14.32;12.98;;;17.20;99.90;;;;;;1034600;28;20013;-68
2021/12/15 00:54:14;;;;;;;13.53;12.33;;;17.20;99.90;;;;;;1032198;28;20057;-68
2021/12/15 00:54:44;;;;;;;13.48;12.18;;;17.20;99.90;;;;;;1034788;28;20026;-68
2021/12/15 00:55:20;;;;;;;12.50;11.30;;;17.20;99.90;;;;;;1034312;28;20013;-68
2021/12/15 00:55:51;;;;;;;12.18;11.02;;;17.20;99.90;;;;;;1034239;28;20353;-68
2021/12/15 00:56:21;;;;;;;12.60;11.50;;;17.20;99.90;;;;;;1032407;28;20367;-68
2021/12/15 00:56:54;;;;;;;13.37;12.17;;;17.20;99.90;;;;;;1034883;28;20013;-69
2021/12/15 00:57:25;;;;;;;13.15;11.95;;;17.20;99.90;;;;;;1030118;28;20117;-68
2021/12/15 00:57:58;;;;;;;11.67;10.43;;;17.20;99.90;;;;;;1034288;28;20018;-68
2021/12/15 00:58:29;;;;;;;11.43;10.38;;;17.20;99.90;;;;;;1034259;28;20124;-68
2021/12/15 00:59:00;;;;;;;12.47;11.27;;;17.20;99.90;;;;;;1034832;28;20045;-68
2021/12/15 00:59:32;;;;;;;11.77;10.68;;;17.20;99.90;;;;;;1033274;28;20038;-68
2021/12/15 01:00:09;;;;;;;13.32;11.95;;;17.20;99.90;;;;;;1033541;28;20632;-69
2021/12/15 01:00:47;;;;;;;15.50;14.00;;;17.20;99.90;;;;;;1033341;28;20026;-69
2021/12/15 01:01:18;;;;;;;13.35;11.45;;;17.20;99.90;;;;;;1030023;28;20545;-68
2021/12/15 01:01:49;;;;;;;14.40;12.93;;;17.20;99.90;;;;;;1034233;28;20537;-68
2021/12/15 01:02:20;;;;;;;13.77;12.38;;;17.20;99.90;;;;;;1034545;28;20036;-68
2021/12/15 01:02:52;;;;;;;14.83;13.33;;;17.30;99.90;;;;;;1034646;28;20018;-68
2021/12/15 01:03:23;;;;;;;13.43;11.40;;;17.30;99.90;;;;;;1033849;28;20037;-68
2021/12/15 01:03:54;;;;;;;14.52;12.88;;;17.30;99.90;;;;;;1034008;28;20453;-68
2021/12/15 01:04:26;;;;;;;13.60;12.30;;;17.30;99.90;;;;;;1034397;28;20393;-69
2021/12/15 01:04:57;;;;;;;12.00;11.00;;;17.30;99.90;;;;;;1034631;28;20731;-69
2021/12/15 01:05:33;;;;;;;12.13;10.43;;;17.30;99.90;;;;;;1034437;28;20943;-67
2021/12/15 01:06:09;;;;;;;17.25;15.52;;;17.30;99.90;;;;;;1034444;28;20033;-68
2021/12/15 01:06:42;;;;;;;16.10;14.57;;;17.20;99.90;;;;;;1034632;28;20477;-68
2021/12/15 01:07:13;;;;;;;13.27;11.98;;;17.30;99.90;;;;;;1033639;28;20558;-68
2021/12/15 01:07:47;;;;;;;13.60;12.30;;;17.30;99.90;;;;;;1034377;28;20419;-70
2021/12/15 01:08:23;;;;;;;12.35;11.00;;;17.20;99.90;;;;;;1032100;28;20060;-70
2021/12/15 01:08:58;;;;;;;12.43;11.23;;;17.30;99.90;;;;;;1034653;28;20389;-68
2021/12/15 01:09:34;;;;;;;12.63;11.45;;;17.30;99.90;;;;;;1034542;28;20449;-68
2021/12/15 01:10:07;;;;;;;15.10;13.70;;;17.30;99.90;;;;;;1034620;28;20026;-68
2021/12/15 01:11:05;;;;;;;12.88;11.70;;;17.30;99.90;;;;;;1034374;28;20018;-69
2021/12/15 01:20:00;;;;;;;11.68;10.48;;;17.40;99.90;;;;;;1033162;28;20033;-68
2021/12/15 01:20:36;;;;;;;11.90;10.70;;;17.30;99.90;;;;;;1030502;28;20062;-68
2021/12/15 01:21:06;;;;;;;12.55;11.35;;;17.30;99.90;;;;;;1025733;28;20034;-68
2021/12/15 01:21:37;;;;;;;15.00;13.40;;;17.40;99.90;;;;;;1026431;28;20027;-67
2021/12/15 01:22:08;;;;;;;16.77;15.30;;;17.40;99.90;;;;;;1026814;28;20026;-67
2021/12/15 01:22:43;;;;;;;12.50;11.30;;;17.40;99.90;;;;;;1034161;28;20125;-68
2021/12/15 01:23:17;;;;;;;15.40;14.00;;;17.40;99.90;;;;;;1033430;28;20016;-69
2021/12/15 01:23:47;;;;;;;14.02;12.70;;;17.40;99.90;;;;;;1033363;28;20067;-68
2021/12/15 01:24:18;;;;;;;12.97;11.77;;;17.30;99.90;;;;;;1033591;28;20006;-68
2021/12/15 01:24:51;;;;;;;12.13;11.03;;;17.30;99.90;;;;;;1034508;28;20489;-67
2021/12/15 01:25:37;;;;;;;13.13;11.93;;;17.30;99.90;;;;;;1034013;28;20061;-68
2021/12/15 01:26:13;;;;;;;13.93;12.50;;;17.30;99.90;;;;;;1033810;28;20018;-69
2021/12/15 01:26:44;;;;;;;12.80;11.50;;;17.30;99.90;;;;;;1033623;28;20108;-68
2021/12/15 01:27:15;;;;;;;12.60;11.30;;;17.30;99.90;;;;;;1032500;28;20037;-68
2021/12/15 01:27:46;;;;;;;18.10;16.30;;;17.30;99.90;;;;;;1032671;28;20047;-69
2021/12/15 01:28:17;;;;;;;15.52;13.98;;;17.30;99.90;;;;;;1037114;28;20016;-68
2021/12/15 01:28:48;;;;;;;12.75;11.45;;;17.30;99.90;;;;;;1034866;28;20058;-68
2021/12/15 01:29:18;;;;;;;14.50;12.43;;;17.30;99.90;;;;;;1034504;28;20013;-69
2021/12/15 01:29:49;;;;;;;11.13;9.90;;;17.30;99.90;;;;;;1034980;28;20010;-68
2021/12/15 01:30:29;;;;;;;12.43;11.13;;;17.30;99.90;;;;;;1033915;28;20619;-68
2021/12/15 01:31:04;;;;;;;12.88;11.57;;;17.30;99.90;;;;;;1034308;28;20068;-69
2021/12/15 01:31:35;;;;;;;12.45;11.35;;;17.30;99.90;;;;;;1032918;28;20402;-68
2021/12/15 01:32:06;;;;;;;11.90;10.80;;;17.30;99.90;;;;;;1034269;28;20413;-68
2021/12/15 01:32:37;;;;;;;13.02;11.77;;;17.30;99.90;;;;;;1034847;28;20113;-68
2021/12/15 01:33:09;;;;;;;12.60;11.50;;;17.30;99.90;;;;;;1034459;28;20024;-68
2021/12/15 01:33:41;;;;;;;13.50;12.20;;;17.30;99.90;;;;;;1034765;28;20029;-69
2021/12/15 01:34:11;;;;;;;14.75;13.35;;;17.30;99.90;;;;;;1033801;28;20453;-68
2021/12/15 01:34:42;;;;;;;13.93;12.57;;;17.30;99.90;;;;;;1034462;28;20360;-68
2021/12/15 01:35:13;;;;;;;11.60;10.47;;;17.30;99.90;;;;;;1032246;28;20034;-68
2021/12/15 01:35:48;;;;;;;11.43;10.32;;;17.30;99.90;;;;;;1033953;28;20042;-68
2021/12/15 01:36:18;;;;;;;12.00;10.90;;;17.30;99.90;;;;;;1034450;28;20022;-68
2021/12/15 01:36:49;;;;;;;13.90;12.60;;;17.30;99.90;;;;;;1034881;28;20021;-69
2021/12/15 01:37:20;;;;;;;15.87;14.33;;;17.30;99.90;;;;;;1034496;28;20017;-68
2021/12/15 01:37:51;;;;;;;13.07;11.68;;;17.30;99.90;;;;;;1034552;28;20018;-69
2021/12/15 01:38:26;;;;;;;13.05;11.85;;;17.30;99.90;;;;;;1034213;28;20041;-69
2021/12/15 01:38:57;;;;;;;16.58;14.85;;;17.30;99.90;;;;;;1032630;28;20120;-69
2021/12/15 01:39:27;;;;;;;13.70;12.40;;;17.30;99.90;;;;;;1032893;28;20393;-68
2021/12/15 01:39:58;;;;;;;14.10;12.80;;;17.30;99.90;;;;;;1034499;28;20450;-68
2021/12/15 01:40:35;;;;;;;12.07;10.98;;;17.30;99.90;;;;;;1034161;28;20495;-68
2021/12/15 01:41:14;;;;;;;13.88;12.50;;;17.30;99.90;;;;;;1029827;28;20046;-68
2021/12/15 01:41:45;;;;;;;11.10;10.00;;;17.30;99.90;;;;;;1032275;28;20041;-69
2021/12/15 01:42:15;;;;;;;12.05;10.85;;;17.30;99.90;;;;;;1033571;28;20026;-68
2021/12/15 01:42:46;;;;;;;13.60;12.40;;;17.30;99.90;;;;;;1033353;28;20022;-69
2021/12/15 01:43:25;;;;;;;12.43;11.23;;;17.30;99.90;;;;;;1033120;28;20490;-69
2021/12/15 01:47:08;;;;;;;12.43;11.32;;;17.40;99.90;;;;;;1033198;28;20642;-69
2021/12/15 01:47:39;;;;;;;13.40;12.30;;;17.30;99.90;;;;;;1034468;28;20371;-68
2021/12/15 01:48:13;;;;;;;13.17;11.93;;;17.40;99.90;;;;;;1034454;28;20042;-69
2021/12/15 01:48:59;;;;;;;12.10;10.88;;;17.40;99.90;;;;;;1034905;28;20109;-68
2021/12/15 01:49:40;;;;;;;17.38;15.73;;;17.40;99.90;;;;;;1033803;28;20106;-68
2021/12/15 01:50:12;;;;;;;11.60;10.50;;;17.30;99.90;;;;;;1033582;28;20010;-70
2021/12/15 01:50:43;;;;;;;13.65;12.35;;;17.40;99.90;;;;;;1032347;28;25145;-69
2021/12/15 01:51:14;;;;;;;14.25;13.05;;;17.30;99.90;;;;;;1033797;28;20553;-69
2021/12/15 01:51:44;;;;;;;11.97;10.83;;;17.40;99.90;;;;;;1034771;28;20140;-70
2021/12/15 01:52:26;;;;;;;12.70;11.60;;;17.30;99.90;;;;;;1034070;28;20138;-69
2021/12/15 01:52:56;;;;;;;12.13;10.93;;;17.40;99.90;;;;;;1029978;28;20260;-72
2021/12/15 01:53:27;;;;;;;13.30;12.00;;;17.40;99.90;;;;;;1026778;28;20118;-69
2021/12/15 01:53:59;;;;;;;18.27;16.37;;;17.40;99.90;;;;;;1027436;28;20102;-70
2021/12/15 01:54:33;;;;;;;13.68;12.38;;;17.30;99.90;;;;;;1027786;28;20478;-71
2021/12/15 01:55:12;;;;;;;17.13;15.52;;;17.30;99.90;;;;;;1033043;28;20010;-70
2021/12/15 01:55:44;;;;;;;12.27;10.98;;;17.30;99.90;;;;;;1034061;28;20105;-69
2021/12/15 01:56:14;;;;;;;11.90;10.70;;;17.30;99.90;;;;;;1034198;28;20018;-69
2021/12/15 01:56:45;;;;;;;14.37;13.07;;;17.30;99.90;;;;;;1034865;28;20014;-69
2021/12/15 01:57:18;;;;;;;13.00;11.83;;;17.30;99.90;;;;;;1034251;28;20006;-69
2021/12/15 01:57:49;;;;;;;13.20;12.00;;;17.30;99.90;;;;;;1034542;28;20010;-69
2021/12/15 01:58:20;;;;;;;14.20;12.90;;;17.30;99.90;;;;;;1032641;28;20080;-70
2021/12/15 01:58:50;;;;;;;12.40;11.40;;;17.30;99.90;;;;;;1034166;28;20087;-70
2021/12/15 01:59:24;;;;;;;12.73;11.43;;;17.30;99.90;;;;;;1034418;28;20117;-69
2021/12/15 01:59:57;;;;;;;15.27;13.88;;;17.30;99.90;;;;;;1035515;28;20033;-69
2021/12/15 02:00:39;;;;;;;13.02;11.80;;;17.30;99.90;;;;;;1034946;28;20488;-69
2021/12/15 02:01:10;;;;;;;13.20;11.82;;;17.30;99.90;;;;;;1034868;28;20476;-69
2021/12/15 02:01:41;;;;;;;14.57;13.27;;;17.30;99.90;;;;;;1035226;28;20513;-69
2021/12/15 02:02:12;;;;;;;14.70;13.20;;;17.30;99.90;;;;;;1032259;28;20385;-69
2021/12/15 02:02:43;;;;;;;13.68;12.38;;;17.30;99.90;;;;;;1035817;28;20022;-70
2021/12/15 02:03:15;;;;;;;13.00;11.70;;;17.30;99.90;;;;;;1034694;28;20014;-69
2021/12/15 02:03:47;;;;;;;14.57;13.18;;;17.30;99.90;;;;;;1035291;28;20057;-69
2021/12/15 02:04:19;;;;;;;15.32;13.90;;;17.30;99.90;;;;;;1034603;28;20601;-69
2021/12/15 02:04:51;;;;;;;12.20;11.00;;;17.30;99.90;;;;;;1035120;28;20032;-69
2021/12/15 02:05:21;;;;;;;16.38;14.85;;;17.30;99.90;;;;;;1034043;28;20026;-69
2021/12/15 02:05:54;;;;;;;13.83;12.63;;;17.30;99.90;;;;;;1034368;28;20037;-69
2021/12/15 02:06:27;;;;;;;13.25;12.07;;;17.30;99.90;;;;;;1032807;28;20073;-69
2021/12/15 02:06:58;;;;;;;14.25;12.95;;;17.30;99.90;;;;;;1038442;28;20032;-68
2021/12/15 02:07:29;;;;;;;13.20;12.00;;;17.30;99.90;;;;;;1038961;28;20037;-69
2021/12/15 02:08:01;;;;;;;16.48;14.98;;;17.30;99.90;;;;;;1039253;28;20025;-70
2021/12/15 02:08:32;;;;;;;16.75;15.18;;;17.30;99.90;;;;;;1039030;28;20052;-69
2021/12/15 02:09:04;;;;;;;15.33;13.83;;;17.30;99.90;;;;;;1035191;28;20026;-68
2021/12/15 02:10:08;;;;;;;12.65;11.55;;;17.30;99.90;;;;;;1032725;28;20025;-68
2021/12/15 02:10:41;;;;;;;12.97;11.83;;;17.30;99.90;;;;;;1034435;28;20017;-68
2021/12/15 02:11:11;;;;;;;19.52;17.73;;;17.30;99.90;;;;;;1035070;28;20280;-68
2021/12/15 02:11:42;;;;;;;16.27;14.87;;;17.30;99.90;;;;;;1035588;28;20026;-67
2021/12/15 02:12:15;;;;;;;15.40;14.10;;;17.30;99.90;;;;;;1035238;28;20392;-68
2021/12/15 02:12:46;;;;;;;11.93;10.82;;;17.30;99.90;;;;;;1034993;28;20117;-68
2021/12/15 02:13:18;;;;;;;17.52;15.93;;;17.30;99.90;;;;;;1034349;28;20022;-68
2021/12/15 02:13:49;;;;;;;18.45;16.85;;;17.30;99.90;;;;;;1033864;28;20029;-67
2021/12/15 02:14:19;;;;;;;17.13;15.63;;;17.30;99.90;;;;;;1029595;28;20106;-68
2021/12/15 02:14:51;;;;;;;14.13;12.93;;;17.30;99.90;;;;;;1031398;28;20056;-67
2021/12/15 02:15:29;;;;;;;13.05;11.90;;;17.30;99.90;;;;;;1034515;28;20033;-68
2021/12/15 02:16:02;;;;;;;13.77;12.50;;;17.30;99.90;;;;;;1036515;28;20088;-67
2021/12/15 02:16:33;;;;;;;13.73;12.32;;;17.30;99.90;;;;;;1032678;28;20030;-68
2021/12/15 02:17:04;;;;;;;13.43;12.13;;;17.30;99.90;;;;;;1030276;28;20011;-68
2021/12/15 02:17:35;;;;;;;12.20;11.10;;;17.30;99.90;;;;;;1029249;28;20014;-67
2021/12/15 02:18:09;;;;;;;15.95;14.45;;;17.30;99.90;;;;;;1033683;28;20025;-68
2021/12/15 02:18:42;;;;;;;17.27;15.68;;;17.30;99.90;;;;;;1035383;28;20024;-69
2021/12/15 02:19:13;;;;;;;16.90;15.30;;;17.30;99.90;;;;;;1035099;28;20096;-69
2021/12/15 02:19:44;;;;;;;16.53;15.03;;;17.30;99.90;;;;;;1035587;28;20123;-68
2021/12/15 02:20:18;;;;;;;13.73;12.30;;;17.30;99.90;;;;;;1034955;28;20087;-69
2021/12/15 02:21:01;;;;;;;14.95;13.55;;;17.30;99.90;;;;;;1035361;28;20112;-69
2021/12/15 02:21:31;;;;;;;14.30;13.00;;;17.30;99.90;;;;;;1032836;28;20347;-70
2021/12/15 02:22:03;;;;;;;15.83;14.33;;;17.30;99.90;;;;;;1035742;28;20653;-69
2021/12/15 02:22:34;;;;;;;17.80;16.05;;;17.30;99.90;;;;;;1039689;28;20044;-69
2021/12/15 02:23:07;;;;;;;18.20;16.37;;;17.30;99.90;;;;;;1038324;28;20055;-68
2021/12/15 02:23:45;;;;;;;15.20;13.60;;;17.30;99.90;;;;;;1035340;28;20396;-68
2021/12/15 02:24:16;;;;;;;13.63;12.43;;;17.30;99.90;;;;;;1034222;28;20468;-69
2021/12/15 02:24:50;;;;;;;12.00;10.90;;;17.30;99.90;;;;;;1035238;28;20010;-68
2021/12/15 02:25:21;;;;;;;13.38;12.07;;;17.30;99.90;;;;;;1033106;28;20037;-68
2021/12/15 02:25:51;;;;;;;17.50;16.03;;;17.30;99.90;;;;;;1034588;28;20079;-70
2021/12/15 02:26:25;;;;;;;15.70;14.30;;;17.30;99.90;;;;;;1034189;28;20184;-69
2021/12/15 02:26:58;;;;;;;16.50;15.02;;;17.30;99.90;;;;;;1035110;28;20061;-69
2021/12/15 02:27:33;;;;;;;12.40;11.23;;;17.30;99.90;;;;;;1034534;28;20080;-69
2021/12/15 02:28:07;;;;;;;18.13;16.38;;;17.30;99.90;;;;;;1033129;28;20128;-69
2021/12/15 02:28:39;;;;;;;15.02;13.70;;;17.30;99.90;;;;;;1033452;28;20026;-69
2021/12/15 02:29:15;;;;;;;16.67;15.18;;;17.30;99.90;;;;;;1033474;28;20017;-70
2021/12/15 02:29:50;;;;;;;18.05;16.25;;;17.30;99.90;;;;;;1035345;28;20992;-69
2021/12/15 02:31:18;;;;;;;17.52;15.93;;;17.30;99.90;;;;;;1035183;28;20759;-68
2021/12/15 02:33:08;;;;;;;13.20;12.00;;;17.30;99.90;;;;;;1034207;28;20036;-68
2021/12/15 02:33:50;;;;;;;13.80;12.60;;;17.30;99.90;;;;;;1035131;28;20042;-69
2021/12/15 02:37:04;;;;;;;13.55;12.23;;;17.30;99.90;;;;;;1031334;28;20022;-69
2021/12/15 02:37:32;;;;;;;12.48;11.45;;;17.30;99.90;;;;;;1034114;28;20036;-70
2021/12/15 02:38:02;;;;;;;14.77;13.40;;;17.30;99.90;;;;;;1034742;28;20109;-70
2021/12/15 02:38:39;;;;;;;16.07;14.63;;;17.30;99.90;;;;;;1035592;28;20027;-69
2021/12/15 02:39:10;;;;;;;16.15;14.73;;;17.20;99.90;;;;;;1035019;28;20014;-69
2021/12/15 02:40:00;;;;;;;14.10;12.85;;;17.30;99.90;;;;;;1035159;28;20045;-70
2021/12/15 02:40:32;;;;;;;21.70;19.70;;;17.20;99.90;;;;;;1034467;28;20109;-69
2021/12/15 02:41:12;;;;;;;18.77;16.90;;;17.20;99.90;;;;;;1032408;28;20018;-69
2021/12/15 02:41:44;;;;;;;20.10;18.27;;;17.20;99.90;;;;;;1034822;28;20596;-69
2021/12/15 02:42:15;;;;;;;17.58;15.82;;;17.20;99.90;;;;;;1034979;28;20014;-69
2021/12/15 02:42:48;;;;;;;20.10;18.20;;;17.20;99.90;;;;;;1035122;28;20695;-70
2021/12/15 02:43:19;;;;;;;19.40;17.70;;;17.20;99.90;;;;;;1034496;28;20162;-69
2021/12/15 02:44:03;;;;;;;17.93;16.30;;;17.20;99.90;;;;;;1034495;28;20125;-69
2021/12/15 02:44:34;;;;;;;14.93;13.52;;;17.20;99.90;;;;;;1032696;28;20068;-69
2021/12/15 02:45:09;;;;;;;18.98;17.30;;;17.20;99.90;;;;;;1031689;28;20110;-69
2021/12/15 02:45:40;;;;;;;16.70;15.20;;;17.10;99.90;;;;;;1034299;28;20060;-69
2021/12/15 02:46:10;;;;;;;19.33;17.63;;;17.10;99.90;;;;;;1031513;28;20514;-69
2021/12/15 02:46:43;;;;;;;21.37;19.37;;;17.20;99.90;;;;;;1035116;28;20018;-69
2021/12/15 02:47:19;;;;;;;19.02;17.23;;;17.20;99.90;;;;;;1034728;28;20175;-69
2021/12/15 02:47:51;;;;;;;14.48;13.18;;;17.20;99.90;;;;;;1034036;28;20379;-69
2021/12/15 02:48:22;;;;;;;13.63;12.43;;;17.10;99.90;;;;;;1034126;28;20058;-69
2021/12/15 02:48:53;;;;;;;16.00;14.03;;;17.10;99.90;;;;;;1034550;28;20018;-70
2021/12/15 02:49:27;;;;;;;13.68;12.57;;;17.10;99.90;;;;;;1033991;28;20109;-69
2021/12/15 02:50:00;;;;;;;16.40;15.00;;;17.10;99.90;;;;;;1035165;28;20518;-69
2021/12/15 02:50:31;;;;;;;15.88;14.40;;;17.10;99.90;;;;;;1034588;28;20096;-69
2021/12/15 02:51:02;;;;;;;13.38;12.00;;;17.10;99.90;;;;;;1031998;28;20022;-68
2021/12/15 02:51:34;;;;;;;14.50;13.10;;;17.10;99.90;;;;;;1034472;28;20147;-69
2021/12/15 02:52:06;;;;;;;12.95;11.85;;;17.10;99.90;;;;;;1034208;28;20022;-69
2021/12/15 02:52:37;;;;;;;12.90;11.80;;;17.10;99.90;;;;;;1032075;28;20404;-69
2021/12/15 02:53:08;;;;;;;13.60;12.37;;;17.10;99.90;;;;;;1033915;28;20388;-68
2021/12/15 02:53:39;;;;;;;15.20;13.80;;;17.10;99.90;;;;;;1034974;28;20018;-68
2021/12/15 02:54:14;;;;;;;16.97;15.37;;;17.10;99.90;;;;;;1034920;28;20029;-69
2021/12/15 02:54:45;;;;;;;16.75;15.25;;;17.10;99.90;;;;;;1035332;28;20042;-69
2021/12/15 02:55:16;;;;;;;17.10;15.57;;;17.10;99.90;;;;;;1034516;28;20022;-69
2021/12/15 02:55:47;;;;;;;13.82;12.52;;;17.10;99.90;;;;;;1034592;28;20020;-69
2021/12/15 02:56:17;;;;;;;17.27;15.77;;;17.10;99.90;;;;;;1031806;28;20014;-71
2021/12/15 02:56:52;;;;;;;15.33;14.03;;;17.00;99.90;;;;;;1033985;28;20014;-68
2021/12/15 02:57:22;;;;;;;19.42;17.58;;;17.00;99.90;;;;;;1030452;28;20042;-68
2021/12/15 02:57:54;;;;;;;14.30;12.80;;;17.10;99.90;;;;;;1030774;28;20032;-68
2021/12/15 02:58:31;;;;;;;13.43;12.18;;;17.10;99.90;;;;;;1030426;28;20128;-70
2021/12/15 02:59:05;;;;;;;15.23;13.80;;;17.00;99.90;;;;;;1030434;28;20901;-69
2021/12/15 02:59:59;;;;;;;15.07;13.77;;;17.10;99.90;;;;;;1034711;28;20110;-69
2021/12/15 03:00:45;;;;;;;14.52;13.23;;;17.10;99.90;;;;;;1032613;28;20449;-68
2021/12/15 03:01:28;;;;;;;14.52;13.30;;;17.10;99.90;;;;;;1030153;28;20046;-69
2021/12/15 03:03:40;;;;;;;13.85;12.55;;;17.10;99.90;;;;;;1034174;28;20117;-68
2021/12/15 03:04:40;;;;;;;20.83;18.83;;;17.10;99.90;;;;;;1033249;28;20030;-69